createdAt,value
2019-05-09T00:01:54.992Z,62.35
2019-05-09T00:04:23.084Z,62.75
2019-05-09T00:06:49.790Z,62.38
2019-05-09T00:09:16.513Z,62.48
2019-05-09T00:11:43.972Z,62.39
2019-05-09T00:14:13.412Z,63.54
2019-05-09T00:16:39.444Z,62.85
2019-05-09T00:19:06.230Z,63.20
2019-05-09T00:21:34.854Z,63.16
2019-05-09T00:24:03.569Z,63.22
2019-05-09T00:26:30.182Z,62.88
2019-05-09T00:28:59.180Z,62.68
2019-05-09T00:31:27.666Z,63.31
2019-05-09T00:33:56.298Z,64.00
2019-05-09T00:36:23.292Z,63.35
2019-05-09T00:38:49.955Z,62.50
2019-05-09T00:41:16.571Z,62.89
2019-05-09T00:43:44.958Z,62.76
2019-05-09T00:46:14.100Z,63.03
2019-05-09T00:48:46.014Z,63.33
2019-05-09T00:51:14.056Z,62.99
2019-05-09T00:53:40.987Z,63.24
2019-05-09T00:56:07.503Z,62.89
2019-05-09T00:58:34.025Z,63.76
2019-05-09T01:01:00.870Z,64.62
2019-05-09T01:03:27.592Z,64.71
2019-05-09T01:05:54.301Z,64.63
2019-05-09T01:08:21.146Z,64.86
2019-05-09T01:10:47.772Z,65.07
2019-05-09T01:13:14.461Z,64.41
2019-05-09T01:15:43.949Z,64.86
2019-05-09T01:18:10.397Z,64.43
2019-05-09T01:20:37.351Z,64.95
2019-05-09T01:23:04.169Z,65.43
2019-05-09T01:25:33.355Z,65.25
2019-05-09T01:27:59.737Z,64.84
2019-05-09T01:30:26.563Z,65.12
2019-05-09T01:33:03.569Z,65.76
2019-05-09T01:35:30.657Z,65.61
2019-05-09T01:37:57.197Z,66.17
2019-05-09T01:40:24.010Z,65.89
2019-05-09T01:42:50.850Z,65.67
2019-05-09T01:45:17.516Z,65.42
2019-05-09T01:47:44.219Z,66.08
2019-05-09T01:50:11.043Z,65.46
2019-05-09T01:52:37.943Z,65.37
2019-05-09T01:55:05.412Z,65.34
2019-05-09T01:57:33.741Z,66.07
2019-05-09T02:00:00.839Z,65.72
2019-05-09T02:02:27.433Z,66.03
2019-05-09T02:04:54.180Z,66.84
2019-05-09T02:07:20.875Z,66.75
2019-05-09T02:09:47.793Z,66.79
2019-05-09T02:12:14.489Z,66.50
2019-05-09T02:14:43.735Z,66.15
2019-05-09T02:17:15.333Z,66.90
2019-05-09T02:19:44.039Z,66.08
2019-05-09T02:22:28.909Z,66.80
2019-05-09T02:24:55.622Z,66.77
2019-05-09T02:27:23.820Z,66.28
2019-05-09T02:29:50.717Z,67.25
2019-05-09T02:32:17.276Z,67.07
2019-05-09T02:34:44.344Z,66.99
2019-05-09T02:37:11.392Z,67.01
2019-05-09T02:39:39.410Z,66.40
2019-05-09T02:42:12.640Z,66.81
2019-05-09T02:44:34.962Z,66.97
2019-05-09T02:47:03.515Z,66.93
2019-05-09T02:49:30.129Z,67.00
2019-05-09T02:51:59.212Z,66.31
2019-05-09T02:54:29.436Z,66.56
2019-05-09T02:56:57.851Z,66.46
2019-05-09T02:59:29.746Z,66.65
2019-05-09T03:01:58.799Z,67.04
2019-05-09T03:04:28.308Z,66.65
2019-05-09T03:06:54.284Z,67.11
2019-05-09T03:09:20.914Z,66.67
2019-05-09T03:11:48.527Z,66.63
2019-05-09T03:14:15.594Z,66.72
2019-05-09T03:16:42.150Z,66.58
2019-05-09T03:19:09.325Z,66.85
2019-05-09T03:21:40.937Z,66.42
2019-05-09T03:24:09.739Z,66.96
2019-05-09T03:26:38.700Z,66.20
2019-05-09T03:29:22.600Z,66.67
2019-05-09T03:31:50.391Z,66.44
2019-05-09T03:34:19.590Z,66.81
2019-05-09T03:36:47.680Z,66.40
2019-05-09T03:39:14.310Z,66.67
2019-05-09T03:41:41.042Z,66.73
2019-05-09T03:44:07.628Z,66.54
2019-05-09T03:46:34.309Z,66.81
2019-05-09T03:49:02.849Z,67.05
2019-05-09T03:51:30.949Z,67.69
2019-05-09T03:53:57.785Z,67.15
2019-05-09T03:56:40.985Z,66.50
2019-05-09T03:59:08.407Z,66.23
2019-05-09T04:01:35.178Z,67.08
2019-05-09T04:04:01.937Z,66.96
2019-05-09T04:06:28.904Z,66.42
2019-05-09T04:08:55.349Z,66.66
2019-05-09T04:11:21.822Z,66.81
2019-05-09T04:14:02.346Z,66.37
2019-05-09T04:16:31.301Z,66.57
2019-05-09T04:18:58.293Z,66.24
2019-05-09T04:21:25.013Z,65.48
2019-05-09T04:23:51.978Z,65.72
2019-05-09T04:26:24.288Z,65.30
2019-05-09T04:28:50.792Z,65.51
2019-05-09T04:31:17.873Z,65.68
2019-05-09T04:33:47.365Z,65.73
2019-05-09T04:36:14.368Z,66.81
2019-05-09T04:38:41.924Z,66.75
2019-05-09T04:41:08.735Z,66.50
2019-05-09T04:43:39.462Z,65.85
2019-05-09T04:46:07.882Z,66.46
2019-05-09T04:48:37.370Z,68.60
2019-05-09T04:51:07.819Z,68.08
2019-05-09T04:53:34.827Z,67.82
2019-05-09T04:56:21.904Z,67.85
2019-05-09T04:58:48.509Z,68.23
2019-05-09T05:01:19.815Z,67.25
2019-05-09T05:03:48.015Z,67.64
2019-05-09T05:06:18.000Z,67.67
2019-05-09T05:08:43.210Z,68.30
2019-05-09T05:11:09.824Z,68.12
2019-05-09T05:13:38.392Z,67.61
2019-05-09T05:16:05.004Z,68.66
2019-05-09T05:18:31.632Z,67.48
2019-05-09T05:20:58.261Z,65.97
2019-05-09T05:23:32.799Z,68.07
2019-05-09T05:26:00.456Z,68.07
2019-05-09T05:28:27.858Z,67.34
2019-05-09T05:30:54.831Z,67.49
2019-05-09T05:33:38.576Z,68.01
2019-05-09T05:36:07.887Z,68.14
2019-05-09T05:38:34.945Z,66.77
2019-05-09T05:41:01.826Z,67.16
2019-05-09T05:43:40.536Z,67.53
2019-05-09T05:46:04.864Z,67.93
2019-05-09T05:48:33.536Z,67.79
2019-05-09T05:51:00.281Z,68.16
2019-05-09T05:53:27.730Z,68.61
2019-05-09T05:55:54.748Z,69.28
2019-05-09T05:58:21.483Z,69.51
2019-05-09T06:00:48.176Z,70.01
2019-05-09T06:03:15.050Z,70.48
2019-05-09T06:05:41.766Z,69.76
2019-05-09T06:08:08.458Z,69.56
2019-05-09T06:10:37.639Z,69.07
2019-05-09T06:13:03.700Z,69.16
2019-05-09T06:15:30.423Z,69.55
2019-05-09T06:17:57.937Z,69.19
2019-05-09T06:20:24.890Z,69.00
2019-05-09T06:22:51.420Z,68.42
2019-05-09T06:25:20.809Z,67.79
2019-05-09T06:27:48.255Z,68.50
2019-05-09T06:30:28.351Z,67.37
2019-05-09T06:32:57.831Z,67.10
2019-05-09T06:35:24.320Z,67.98
2019-05-09T06:37:51.143Z,69.38
2019-05-09T06:40:22.840Z,65.74
2019-05-09T06:42:51.218Z,65.59
2019-05-09T06:45:27.254Z,65.06
2019-05-09T06:47:53.957Z,64.06
2019-05-09T06:50:20.636Z,63.82
2019-05-09T06:52:47.948Z,64.43
2019-05-09T06:55:14.744Z,64.38
2019-05-09T06:57:43.020Z,62.96
2019-05-09T07:00:21.614Z,63.66
2019-05-09T07:02:58.345Z,63.57
2019-05-09T07:05:43.655Z,62.68
2019-05-09T07:08:14.933Z,62.95
2019-05-09T07:10:41.539Z,62.48
2019-05-09T07:13:08.571Z,62.62
2019-05-09T07:15:37.543Z,61.15
2019-05-09T07:18:04.053Z,61.19
2019-05-09T07:20:32.497Z,60.68
2019-05-09T07:22:59.101Z,60.45
2019-05-09T07:25:30.154Z,61.22
2019-05-09T07:27:58.674Z,60.18
2019-05-09T07:30:30.153Z,60.46
2019-05-09T07:32:57.970Z,60.75
2019-05-09T07:35:25.010Z,62.00
2019-05-09T07:37:52.106Z,59.46
2019-05-09T07:40:19.017Z,60.88
2019-05-09T07:42:47.762Z,60.13
2019-05-09T07:45:14.433Z,59.58
2019-05-09T07:47:41.089Z,59.09
2019-05-09T07:50:08.648Z,58.99
2019-05-09T07:52:35.716Z,58.60
2019-05-09T07:55:05.805Z,58.23
2019-05-09T07:57:32.437Z,58.50
2019-05-09T07:59:58.983Z,58.77
2019-05-09T08:02:25.422Z,58.48
2019-05-09T08:04:52.131Z,59.03
2019-05-09T08:07:18.816Z,58.50
2019-05-09T08:09:47.460Z,58.89
2019-05-09T08:12:13.993Z,59.23
2019-05-09T08:14:40.627Z,60.66
2019-05-09T08:17:08.597Z,59.89
2019-05-09T08:19:38.441Z,61.71
2019-05-09T08:22:07.786Z,63.16
2019-05-09T08:24:33.767Z,63.03
2019-05-09T08:27:01.527Z,61.97
2019-05-09T08:29:28.397Z,64.27
2019-05-09T08:31:55.080Z,63.98
2019-05-09T08:34:21.723Z,65.96
2019-05-09T08:36:48.693Z,68.43
2019-05-09T08:39:15.165Z,66.60
2019-05-09T08:41:41.849Z,66.39
2019-05-09T08:44:08.441Z,66.47
2019-05-09T08:46:37.565Z,67.63
2019-05-09T08:49:03.867Z,67.01
2019-05-09T08:51:47.532Z,68.70
2019-05-09T08:54:04.858Z,68.20
2019-05-09T08:56:32.848Z,68.46
2019-05-09T08:59:02.108Z,68.46
2019-05-09T09:01:48.089Z,65.91
2019-05-09T09:03:58.012Z,69.23
2019-05-09T09:06:24.653Z,68.52
2019-05-09T09:10:22.786Z,69.11
2019-05-09T09:16:02.961Z,68.37
2019-05-09T09:21:32.502Z,68.95
2019-05-09T09:23:59.337Z,72.00
2019-05-09T09:26:27.748Z,74.10
2019-05-09T09:28:54.498Z,71.77
2019-05-09T09:31:28.527Z,70.08
2019-05-09T09:33:58.320Z,67.99
2019-05-09T09:39:23.324Z,70.14
2019-05-09T09:41:50.590Z,67.10
2019-05-09T09:44:19.083Z,65.63
2019-05-09T09:50:27.640Z,67.56
2019-05-09T09:52:54.526Z,64.39
2019-05-09T09:55:21.245Z,63.31
2019-05-09T09:57:48.481Z,64.50
2019-05-09T10:00:52.211Z,64.54
2019-05-09T10:03:27.262Z,64.27
2019-05-09T10:09:48.108Z,63.34
2019-05-09T11:18:44.042Z,58.27
2019-05-09T11:25:11.021Z,56.30
2019-05-09T11:27:43.683Z,55.89
2019-05-09T11:30:11.181Z,55.91
2019-05-09T11:32:38.697Z,55.82
2019-05-09T11:35:28.684Z,56.24
2019-05-09T11:38:08.483Z,55.90
2019-05-09T11:40:37.856Z,56.28
2019-05-09T11:43:05.065Z,56.43
2019-05-09T11:45:32.473Z,56.49
2019-05-09T11:47:59.769Z,56.19
2019-05-09T11:50:27.051Z,56.30
2019-05-09T11:53:00.719Z,56.37
2019-05-09T11:59:31.776Z,56.12
2019-05-09T12:06:49.604Z,56.42
2019-05-09T12:34:09.254Z,55.28
2019-05-09T12:40:24.721Z,54.86
2019-05-09T12:42:51.357Z,55.33
2019-05-09T12:45:21.259Z,54.98
2019-05-09T12:47:48.209Z,55.39
2019-05-09T13:02:08.709Z,55.15
2019-05-09T13:04:48.007Z,55.10
2019-05-09T13:25:33.484Z,55.29
2019-05-09T13:28:29.301Z,56.44
2019-05-09T13:30:58.401Z,53.18
2019-05-09T13:34:31.903Z,53.95
2019-05-09T13:36:59.638Z,52.02
2019-05-09T13:39:27.966Z,52.89
2019-05-09T13:41:58.300Z,53.45
2019-05-09T13:44:24.670Z,53.83
2019-05-09T13:46:51.310Z,53.75
2019-05-09T13:49:19.319Z,54.13
2019-05-09T13:51:55.025Z,54.56
2019-05-09T13:54:15.585Z,55.00
2019-05-09T13:56:43.435Z,54.38
2019-05-09T13:59:10.123Z,55.01
2019-05-09T14:01:37.820Z,54.72
2019-05-09T14:04:04.852Z,54.54
2019-05-09T14:06:32.714Z,55.21
2019-05-09T14:09:00.005Z,55.12
2019-05-09T14:11:29.198Z,55.62
2019-05-09T14:13:57.594Z,55.67
2019-05-09T14:16:24.384Z,56.04
2019-05-09T14:18:50.950Z,56.71
2019-05-09T14:21:21.446Z,57.18
2019-05-09T14:24:00.297Z,56.81
2019-05-09T14:26:14.806Z,57.96
2019-05-09T14:28:41.438Z,58.70
2019-05-09T14:31:09.321Z,59.44
2019-05-09T14:33:36.018Z,58.96
2019-05-09T14:36:02.932Z,59.72
2019-05-09T14:38:29.403Z,59.31
2019-05-09T14:40:56.344Z,59.97
2019-05-09T14:43:22.985Z,61.53
2019-05-09T14:45:49.703Z,61.96
2019-05-09T14:48:18.758Z,61.79
2019-05-09T14:50:44.982Z,62.58
2019-05-09T14:53:11.760Z,60.98
2019-05-09T14:55:39.927Z,58.77
2019-05-09T14:58:07.841Z,60.43
2019-05-09T15:00:34.761Z,59.79
2019-05-09T15:03:01.335Z,61.63
2019-05-09T15:05:28.014Z,63.13
2019-05-09T15:07:54.796Z,61.46
2019-05-09T15:10:22.001Z,63.52
2019-05-09T15:12:48.852Z,63.53
2019-05-09T15:15:15.695Z,64.17
2019-05-09T15:17:42.462Z,64.77
2019-05-09T15:20:09.478Z,64.92
2019-05-09T15:22:38.389Z,65.76
2019-05-09T15:25:04.753Z,66.67
2019-05-09T15:27:31.648Z,65.62
2019-05-09T15:29:58.554Z,64.94
2019-05-09T15:32:25.213Z,65.03
2019-05-09T15:34:51.937Z,65.21
2019-05-09T15:37:18.898Z,66.75
2019-05-09T15:39:48.286Z,66.33
2019-05-09T15:42:14.866Z,66.23
2019-05-09T15:44:41.494Z,65.22
2019-05-09T15:47:18.028Z,65.06
2019-05-09T15:49:44.205Z,62.32
2019-05-09T15:52:10.718Z,63.68
2019-05-09T15:54:38.652Z,64.88
2019-05-09T15:57:05.643Z,64.48
2019-05-09T15:59:32.178Z,64.58
2019-05-09T16:01:58.732Z,65.36
2019-05-09T16:04:25.246Z,66.46
2019-05-09T16:06:52.343Z,66.49
2019-05-09T16:09:19.565Z,68.54
2019-05-09T16:11:48.382Z,68.77
2019-05-09T16:14:15.272Z,69.74
2019-05-09T16:16:42.107Z,71.58
2019-05-09T16:19:09.108Z,72.32
2019-05-09T16:21:38.110Z,71.00
2019-05-09T16:24:04.396Z,70.87
2019-05-09T16:26:31.161Z,71.52
2019-05-09T16:28:58.230Z,69.78
2019-05-09T16:31:24.941Z,68.74
2019-05-09T16:33:51.782Z,69.02
2019-05-09T16:36:18.513Z,69.00
2019-05-09T16:38:48.440Z,68.99
2019-05-09T16:41:13.723Z,68.92
2019-05-09T16:43:40.414Z,69.01
2019-05-09T16:46:07.640Z,69.31
2019-05-09T16:48:34.629Z,70.17
2019-05-09T16:51:04.258Z,70.22
2019-05-09T16:53:29.957Z,70.46
2019-05-09T16:55:57.843Z,70.64
2019-05-09T16:58:24.717Z,70.81
2019-05-09T17:00:52.614Z,71.28
2019-05-09T17:03:19.311Z,71.37
2019-05-09T17:05:45.997Z,72.51
2019-05-09T17:08:12.847Z,72.20
2019-05-09T17:10:39.568Z,72.70
2019-05-09T17:13:07.819Z,73.82
2019-05-09T17:15:34.841Z,73.47
2019-05-09T17:18:01.943Z,72.68
2019-05-09T17:20:30.625Z,72.76
2019-05-09T17:23:13.480Z,72.95
2019-05-09T17:25:32.135Z,73.40
2019-05-09T17:27:59.517Z,74.05
2019-05-09T17:30:28.669Z,74.47
2019-05-09T17:32:58.131Z,74.27
2019-05-09T17:35:24.598Z,74.31
2019-05-09T17:37:51.281Z,74.90
2019-05-09T17:40:19.270Z,74.96
2019-05-09T17:42:46.376Z,73.76
2019-05-09T17:45:13.750Z,73.90
2019-05-09T17:47:40.369Z,73.83
2019-05-09T17:50:07.838Z,73.98
2019-05-09T17:52:34.822Z,74.22
2019-05-09T17:55:01.799Z,74.25
2019-05-09T17:57:28.499Z,74.51
2019-05-09T17:59:55.096Z,75.90
2019-05-09T18:02:22.008Z,76.27
2019-05-09T18:04:48.743Z,76.42
2019-05-09T18:07:17.836Z,76.76
2019-05-09T18:09:44.156Z,77.35
2019-05-09T18:12:10.741Z,77.39
2019-05-09T18:14:38.281Z,76.93
2019-05-09T18:17:05.612Z,75.68
2019-05-09T18:19:32.299Z,75.13
2019-05-09T18:21:58.857Z,75.45
2019-05-09T18:24:25.562Z,75.47
2019-05-09T18:26:52.332Z,75.61
2019-05-09T18:29:19.345Z,75.91
2019-05-09T18:32:00.227Z,76.18
2019-05-09T18:34:28.658Z,75.90
2019-05-09T18:36:55.651Z,75.42
2019-05-09T18:39:22.130Z,75.37
2019-05-09T18:41:49.047Z,75.67
2019-05-09T18:44:18.125Z,75.91
2019-05-09T18:46:44.454Z,75.72
2019-05-09T18:49:14.614Z,75.90
2019-05-09T18:51:41.508Z,76.03
2019-05-09T18:54:08.700Z,75.55
2019-05-09T18:56:35.403Z,75.87
2019-05-09T18:59:02.161Z,76.17
2019-05-09T19:04:28.287Z,76.33
2019-05-09T19:06:55.058Z,76.43
2019-05-09T19:12:10.371Z,77.03
2019-05-09T19:14:42.058Z,76.85
2019-05-09T19:17:49.352Z,76.79
2019-05-09T19:24:07.746Z,77.20
2019-05-09T19:26:36.011Z,77.26
2019-05-09T19:29:05.939Z,77.25
2019-05-09T19:31:32.603Z,77.44
2019-05-09T19:34:08.467Z,77.24
2019-05-09T19:36:39.935Z,77.16
2019-05-09T19:39:08.156Z,76.96
2019-05-09T19:41:36.064Z,77.19
2019-05-09T19:44:06.098Z,77.15
2019-05-09T19:46:32.928Z,77.39
2019-05-09T19:48:59.733Z,77.43
2019-05-09T19:51:26.441Z,77.32
2019-05-09T19:53:53.315Z,77.39
2019-05-09T19:56:20.200Z,77.47
2019-05-09T19:58:46.849Z,77.26
2019-05-09T20:01:13.501Z,77.46
2019-05-09T20:03:40.583Z,77.43
2019-05-09T20:06:07.590Z,77.14
2019-05-09T20:08:34.544Z,76.93
2019-05-09T20:11:44.066Z,76.87
2019-05-09T20:14:14.524Z,77.53
2019-05-09T20:20:13.396Z,79.00
2019-05-09T20:22:52.065Z,79.13
2019-05-09T20:25:09.927Z,79.28
2019-05-09T20:33:37.878Z,79.48
2019-05-09T20:36:13.476Z,79.54
2019-05-09T20:38:40.135Z,79.81
2019-05-09T20:41:07.298Z,79.93
2019-05-09T20:43:33.969Z,80.12
2019-05-09T20:46:02.909Z,80.07
2019-05-09T20:48:29.805Z,80.34
2019-05-09T20:51:37.992Z,80.28
2019-05-09T20:54:20.038Z,80.02
2019-05-09T20:56:35.961Z,80.37
2019-05-09T20:59:02.898Z,80.53
2019-05-09T21:01:29.505Z,80.45
2019-05-09T21:04:00.150Z,80.56
2019-05-09T21:06:24.717Z,80.14
2019-05-09T21:08:51.450Z,79.94
2019-05-09T21:11:18.169Z,79.75
2019-05-09T21:13:48.265Z,79.71
2019-05-09T21:16:13.289Z,78.09
2019-05-09T21:18:39.920Z,77.89
2019-05-09T21:21:06.822Z,77.21
2019-05-09T21:23:33.640Z,77.10
2019-05-09T21:26:00.297Z,77.24
2019-05-09T21:28:28.376Z,77.82
2019-05-09T21:30:56.498Z,76.48
2019-05-09T21:33:23.199Z,76.62
2019-05-09T21:35:49.722Z,76.66
2019-05-09T21:38:16.310Z,76.42
2019-05-09T21:40:44.681Z,76.37
2019-05-09T21:43:11.483Z,76.34
2019-05-09T21:45:38.250Z,76.40
2019-05-09T21:48:04.973Z,76.34
2019-05-09T21:50:31.608Z,76.09
2019-05-09T21:52:58.262Z,76.22
2019-05-09T21:55:25.008Z,76.19
2019-05-09T21:57:51.584Z,76.35
2019-05-09T22:00:25.013Z,76.71
2019-05-09T22:02:51.903Z,76.92
2019-05-09T22:05:19.128Z,76.96
2019-05-09T22:07:45.703Z,77.06
2019-05-09T22:10:12.957Z,77.06
2019-05-09T22:12:39.675Z,77.03
2019-05-09T22:15:06.980Z,76.91
2019-05-09T22:17:37.870Z,76.75
2019-05-09T22:20:10.233Z,76.30
2019-05-09T22:22:36.915Z,76.43
2019-05-09T22:25:06.727Z,76.75
2019-05-09T22:27:34.293Z,77.29
2019-05-09T22:30:01.059Z,77.78
2019-05-09T22:32:29.981Z,77.41
2019-05-09T22:34:56.448Z,76.60
2019-05-09T22:37:23.152Z,77.09
2019-05-09T22:39:49.614Z,76.49
2019-05-09T22:42:16.574Z,76.49
2019-05-09T22:44:43.172Z,76.32
2019-05-09T22:47:10.374Z,76.34
2019-05-09T22:49:36.926Z,77.05
2019-05-09T22:52:03.706Z,78.10
2019-05-09T22:54:30.385Z,78.41
2019-05-09T22:56:56.901Z,78.44
2019-05-09T22:59:23.356Z,78.65
2019-05-09T23:01:49.973Z,78.72
2019-05-09T23:04:16.690Z,77.89
2019-05-09T23:06:43.383Z,78.70
2019-05-09T23:09:09.879Z,78.79
2019-05-09T23:11:36.465Z,78.67
2019-05-09T23:14:03.705Z,78.79
2019-05-09T23:16:32.581Z,78.75
2019-05-09T23:18:59.175Z,78.76
2019-05-09T23:21:27.531Z,77.61
2019-05-09T23:23:58.969Z,76.60
2019-05-09T23:26:25.577Z,77.13
2019-05-09T23:28:52.281Z,76.93
2019-05-09T23:31:20.819Z,76.73
2019-05-09T23:33:47.595Z,77.40
2019-05-09T23:36:14.215Z,78.86
2019-05-09T23:38:59.705Z,78.69
2019-05-09T23:41:26.542Z,78.63
2019-05-09T23:43:53.228Z,79.00
2019-05-09T23:46:20.425Z,79.35
2019-05-09T23:48:46.933Z,78.65
2019-05-09T23:51:13.363Z,78.56
2019-05-09T23:53:40.169Z,77.83
2019-05-09T23:56:25.524Z,77.42
2019-05-09T23:59:10.185Z,77.54
